Weather at Adana Airport

Public forecast

Using degrees Celsius for public forecast. Weather courtesy of forecast.io.

Current aviation weather report (METAR) for Adana Airport

Retrieved 2020/12/04 10:20 UTC (0 seconds ago):

LTAF 041020Z 03006KT 350V060 CAVOK 21/03 Q1018 NOSIG RMK RWY23 05006KT 360V100

Aviation forecast (TAF) for Adana Airport

Retrieved 2020/12/04 06:01 UTC (4 hours ago):

TAF LTAF 040440Z 0406/0506 03009KT CAVOK BECMG 0414/0416 4000 HZ PROB40 TEMPO 0416/0420 1200 BECMG 0420/0422 CAVOK PROB40 TEMPO 0504/0506 4000 BR